Seiyu Maru — JD3189 — position and weather

sailwx.info

Track history (hours):
 
Tides and Currents Weather Stations Pressure Air Temp Water Temp Dewpoint Dewpoint Depression Visibility Wind Speed Wind Dir Waves Ship Positions

Seiyu Maru

Last reported at 2017-Jan-11 12:09 UTC. Time now 2017-Jan-19 08:51 UTC.
Position N 34°00' E 135°01'.

Length 75 m; draft 4.5 m.

Type: Cargo ship. MMSI: 431002433.

Date/timePositionNaut miles runAvg speedWind from/ knotsBaromVisibWave heightAir tempDewpointWater temp
2017-Jan-11 12:09N 34°00' E 135°01'712.1
2017-Jan-11 11:33N 34°08' E 135°02'1311.6
2017-Jan-11 10:24N 34°21' E 135°06'1111.5
2017-Jan-11 09:29N 34°29' E 135°13'1111.3
2017-Jan-11 08:33N 34°37' E 135°22'2 2.2
2017-Jan-11 07:26N 34°38' E 135°25'0 0.0
2017-Jan-11 05:23N 34°38' E 135°25'0 0.0
2017-Jan-11 03:23N 34°38' E 135°25'0 0.0
2017-Jan-11 02:05N 34°38' E 135°25'0 0.0
2017-Jan-11 01:23N 34°38' E 135°25'0 0.0
2017-Jan-11 00:06N 34°38' E 135°25'0 0.0
2017-Jan-10 23:34N 34°38' E 135°25'1 0.6
2017-Jan-10 22:33N 34°38' E 135°24'0 0.1
2017-Jan-10 21:34N 34°38' E 135°24'2 2.4
2017-Jan-10 20:33N 34°40' E 135°26'0 0.0
2017-Jan-10 19:28N 34°40' E 135°26'0 0.0
2017-Jan-10 18:28N 34°40' E 135°26'0 0.0
2017-Jan-10 17:10N 34°40' E 135°26'0 0.0
2017-Jan-10 13:22N 34°40' E 135°26'0 0.0
2017-Jan-10 12:16N 34°40' E 135°26'0 0.0
2017-Jan-10 11:28N 34°40' E 135°26'0 0.0
2017-Jan-10 10:28N 34°40' E 135°26'0 0.0
2017-Jan-10 09:22N 34°40' E 135°26'0 0.0
2017-Jan-10 08:28N 34°40' E 135°26'0 0.0
2017-Jan-10 07:28N 34°40' E 135°26'0 0.0
2017-Jan-10 06:28N 34°40' E 135°26'0 0.0
2017-Jan-10 05:10N 34°40' E 135°26'1 0.9
2017-Jan-10 04:33N 34°40' E 135°26'0 0.1
2017-Jan-10 01:24N 34°40' E 135°27'0 0.0
2017-Jan-10 00:21N 34°40' E 135°27'5 6.5
2017-Jan-09 23:33N 34°37' E 135°22'1110.7
2017-Jan-09 22:33N 34°35' E 135°09'8 0.2
2017-Jan-07 20:31N 34°38' E 135°00'1212.3
2017-Jan-07 19:33N 34°37' E 135°15'10 9.9
2017-Jan-07 18:32N 34°38' E 135°27'0 0.1
2017-Jan-07 16:31N 34°38' E 135°27'0 0.1
2017-Jan-07 14:31N 34°38' E 135°27'0 0.3
2017-Jan-07 13:28N 34°38' E 135°27'0 0.1
2017-Jan-07 12:34N 34°38' E 135°27'0 0.0
2017-Jan-07 11:34N 34°38' E 135°27'0 0.0
2017-Jan-07 09:16N 34°38' E 135°27'0 0.6
2017-Jan-07 08:33N 34°38' E 135°27'7 6.7
2017-Jan-07 07:33N 34°32' E 135°24'1 1.2
2017-Jan-07 06:33N 34°31' E 135°24'0 0.0
2017-Jan-07 05:28N 34°31' E 135°24'0 0.0
2017-Jan-07 04:28N 34°31' E 135°24'0 0.0
2017-Jan-07 03:28N 34°31' E 135°24'0 0.0
2017-Jan-07 02:22N 34°31' E 135°24'0 0.0
2017-Jan-07 01:28N 34°31' E 135°24'0 0.0
2017-Jan-07 00:22N 34°31' E 135°24'0 0.0
2017-Jan-06 23:28N 34°31' E 135°24'0 0.0
2017-Jan-06 22:28N 34°31' E 135°24'0 0.0
2017-Jan-06 21:28N 34°31' E 135°24'0 0.0
2017-Jan-06 20:22N 34°31' E 135°24'0 0.0
2017-Jan-06 19:28N 34°31' E 135°24'0 0.0
2017-Jan-06 18:28N 34°31' E 135°24'0 0.0
2017-Jan-06 17:22N 34°31' E 135°24'0 0.0
2017-Jan-06 16:28N 34°31' E 135°24'0 0.0
2017-Jan-06 15:10N 34°31' E 135°24'0 0.0
2017-Jan-06 14:28N 34°31' E 135°24'0 0.0
2017-Jan-06 13:28N 34°31' E 135°24'0 0.0
2017-Jan-06 12:28N 34°31' E 135°24'1 1.1
2017-Jan-06 11:33N 34°32' E 135°24'9 9.4
2017-Jan-06 10:33N 34°28' E 135°14'1010.1
2017-Jan-06 09:34N 34°20' E 135°06'6 6.3
2017-Jan-06 08:34N 34°14' E 135°07'0 0.4
2017-Jan-06 07:34N 34°15' E 135°07'0 0.0
2017-Jan-06 06:33N 34°15' E 135°07'0 0.0
2017-Jan-06 05:31N 34°15' E 135°07'0 0.0
2017-Jan-06 04:31N 34°15' E 135°07'0 0.0
2017-Jan-06 03:31N 34°15' E 135°07'0 0.0
2017-Jan-06 02:28N 34°15' E 135°07'0 0.0
2017-Jan-06 01:31N 34°15' E 135°07'0 0.0
2017-Jan-05 22:31N 34°15' E 135°07'1 0.9
2017-Jan-05 21:33N 34°15' E 135°06'0 0.0
2017-Jan-05 20:33N 34°15' E 135°06'0 0.0
2017-Jan-05 19:33N 34°15' E 135°06'0 0.0
2017-Jan-05 18:33N 34°15' E 135°06'0 0.0
2017-Jan-05 17:33N 34°15' E 135°06'6 5.4
2017-Jan-05 16:28N 34°20' E 135°06'1112.3
2017-Jan-05 15:34N 34°29' E 135°14'1212.4
2017-Jan-05 14:33N 34°38' E 135°24'3 2.7
2017-Jan-05 13:34N 34°38' E 135°27'0 0.0
2017-Jan-05 12:29N 34°38' E 135°27'0 0.0
2017-Jan-05 11:23N 34°38' E 135°27'0 0.0
2017-Jan-05 10:23N 34°38' E 135°27'0 0.0
2017-Jan-05 09:23N 34°38' E 135°27'0 0.0
2017-Jan-05 07:29N 34°38' E 135°27'0 0.0
2017-Jan-05 06:29N 34°38' E 135°27'0 0.1
2017-Jan-05 04:05N 34°38' E 135°27'0 0.1
2017-Jan-05 03:33N 34°38' E 135°27'5 4.6
2017-Jan-05 02:33N 34°35' E 135°23'4 0.1
2017-Jan-03 05:33N 34°31' E 135°24'1010.0
2017-Jan-03 04:34N 34°35' E 135°13'10 9.9
2017-Jan-03 03:33N 34°37' E 135°01'12 9.2
2017-Jan-03 02:13N 34°40' E 134°47'  
Track history (hours):
 
Tides and Currents Weather Stations Pressure Air Temp Water Temp Dewpoint Dewpoint Depression Visibility Wind Speed Wind Dir Waves Ship Positions

Seiyu Maru

Last reported at 2017-Jan-11 12:09 UTC. Time now 2017-Jan-19 08:51 UTC.
Position N 34°00' E 135°01'.

Length 75 m; draft 4.5 m.

Type: Cargo ship. MMSI: 431002433.

Date/timePositionNaut miles runAvg speedWind from/ knotsBaromVisibWave heightAir tempDewpointWater temp
2017-Jan-11 12:09N 34°00' E 135°01'712.1
2017-Jan-11 11:33N 34°08' E 135°02'1311.6
2017-Jan-11 10:24N 34°21' E 135°06'1111.5
2017-Jan-11 09:29N 34°29' E 135°13'1111.3
2017-Jan-11 08:33N 34°37' E 135°22'2 2.2
2017-Jan-11 07:26N 34°38' E 135°25'0 0.0
2017-Jan-11 05:23N 34°38' E 135°25'0 0.0
2017-Jan-11 03:23N 34°38' E 135°25'0 0.0
2017-Jan-11 02:05N 34°38' E 135°25'0 0.0
2017-Jan-11 01:23N 34°38' E 135°25'0 0.0
2017-Jan-11 00:06N 34°38' E 135°25'0 0.0
2017-Jan-10 23:34N 34°38' E 135°25'1 0.6
2017-Jan-10 22:33N 34°38' E 135°24'0 0.1
2017-Jan-10 21:34N 34°38' E 135°24'2 2.4
2017-Jan-10 20:33N 34°40' E 135°26'0 0.0
2017-Jan-10 19:28N 34°40' E 135°26'0 0.0
2017-Jan-10 18:28N 34°40' E 135°26'0 0.0
2017-Jan-10 17:10N 34°40' E 135°26'0 0.0
2017-Jan-10 13:22N 34°40' E 135°26'0 0.0
2017-Jan-10 12:16N 34°40' E 135°26'0 0.0
2017-Jan-10 11:28N 34°40' E 135°26'0 0.0
2017-Jan-10 10:28N 34°40' E 135°26'0 0.0
2017-Jan-10 09:22N 34°40' E 135°26'0 0.0
2017-Jan-10 08:28N 34°40' E 135°26'0 0.0
2017-Jan-10 07:28N 34°40' E 135°26'0 0.0
2017-Jan-10 06:28N 34°40' E 135°26'0 0.0
2017-Jan-10 05:10N 34°40' E 135°26'1 0.9
2017-Jan-10 04:33N 34°40' E 135°26'0 0.1
2017-Jan-10 01:24N 34°40' E 135°27'0 0.0
2017-Jan-10 00:21N 34°40' E 135°27'5 6.5
2017-Jan-09 23:33N 34°37' E 135°22'1110.7
2017-Jan-09 22:33N 34°35' E 135°09'8 0.2
2017-Jan-07 20:31N 34°38' E 135°00'1212.3
2017-Jan-07 19:33N 34°37' E 135°15'10 9.9
2017-Jan-07 18:32N 34°38' E 135°27'0 0.1
2017-Jan-07 16:31N 34°38' E 135°27'0 0.1
2017-Jan-07 14:31N 34°38' E 135°27'0 0.3
2017-Jan-07 13:28N 34°38' E 135°27'0 0.1
2017-Jan-07 12:34N 34°38' E 135°27'0 0.0
2017-Jan-07 11:34N 34°38' E 135°27'0 0.0
2017-Jan-07 09:16N 34°38' E 135°27'0 0.6
2017-Jan-07 08:33N 34°38' E 135°27'7 6.7
2017-Jan-07 07:33N 34°32' E 135°24'1 1.2
2017-Jan-07 06:33N 34°31' E 135°24'0 0.0
2017-Jan-07 05:28N 34°31' E 135°24'0 0.0
2017-Jan-07 04:28N 34°31' E 135°24'0 0.0
2017-Jan-07 03:28N 34°31' E 135°24'0 0.0
2017-Jan-07 02:22N 34°31' E 135°24'0 0.0
2017-Jan-07 01:28N 34°31' E 135°24'0 0.0
2017-Jan-07 00:22N 34°31' E 135°24'0 0.0
2017-Jan-06 23:28N 34°31' E 135°24'0 0.0
2017-Jan-06 22:28N 34°31' E 135°24'0 0.0
2017-Jan-06 21:28N 34°31' E 135°24'0 0.0
2017-Jan-06 20:22N 34°31' E 135°24'0 0.0
2017-Jan-06 19:28N 34°31' E 135°24'0 0.0
2017-Jan-06 18:28N 34°31' E 135°24'0 0.0
2017-Jan-06 17:22N 34°31' E 135°24'0 0.0
2017-Jan-06 16:28N 34°31' E 135°24'0 0.0
2017-Jan-06 15:10N 34°31' E 135°24'0 0.0
2017-Jan-06 14:28N 34°31' E 135°24'0 0.0
2017-Jan-06 13:28N 34°31' E 135°24'0 0.0
2017-Jan-06 12:28N 34°31' E 135°24'1 1.1
2017-Jan-06 11:33N 34°32' E 135°24'9 9.4
2017-Jan-06 10:33N 34°28' E 135°14'1010.1
2017-Jan-06 09:34N 34°20' E 135°06'6 6.3
2017-Jan-06 08:34N 34°14' E 135°07'0 0.4
2017-Jan-06 07:34N 34°15' E 135°07'0 0.0
2017-Jan-06 06:33N 34°15' E 135°07'0 0.0
2017-Jan-06 05:31N 34°15' E 135°07'0 0.0
2017-Jan-06 04:31N 34°15' E 135°07'0 0.0
2017-Jan-06 03:31N 34°15' E 135°07'0 0.0
2017-Jan-06 02:28N 34°15' E 135°07'0 0.0
2017-Jan-06 01:31N 34°15' E 135°07'0 0.0
2017-Jan-05 22:31N 34°15' E 135°07'1 0.9
2017-Jan-05 21:33N 34°15' E 135°06'0 0.0
2017-Jan-05 20:33N 34°15' E 135°06'0 0.0
2017-Jan-05 19:33N 34°15' E 135°06'0 0.0
2017-Jan-05 18:33N 34°15' E 135°06'0 0.0
2017-Jan-05 17:33N 34°15' E 135°06'6 5.4
2017-Jan-05 16:28N 34°20' E 135°06'1112.3
2017-Jan-05 15:34N 34°29' E 135°14'1212.4
2017-Jan-05 14:33N 34°38' E 135°24'3 2.7
2017-Jan-05 13:34N 34°38' E 135°27'0 0.0
2017-Jan-05 12:29N 34°38' E 135°27'0 0.0
2017-Jan-05 11:23N 34°38' E 135°27'0 0.0
2017-Jan-05 10:23N 34°38' E 135°27'0 0.0
2017-Jan-05 09:23N 34°38' E 135°27'0 0.0
2017-Jan-05 07:29N 34°38' E 135°27'0 0.0
2017-Jan-05 06:29N 34°38' E 135°27'0 0.1
2017-Jan-05 04:05N 34°38' E 135°27'0 0.1
2017-Jan-05 03:33N 34°38' E 135°27'5 4.6
2017-Jan-05 02:33N 34°35' E 135°23'4 0.1
2017-Jan-03 05:33N 34°31' E 135°24'1010.0
2017-Jan-03 04:34N 34°35' E 135°13'10 9.9
2017-Jan-03 03:33N 34°37' E 135°01'12 9.2
2017-Jan-03 02:13N 34°40' E 134°47'  

Dump ship's entire track history